Box Hill, New York
Current Conditions -  °F | °C
As of 2:56 PM on Sunday 25 Jan 2015 (Local Time) from KISP Reporting Station
Broken Clouds Broken Clouds  
Wind Chill: 31°   Ceiling: 22000
Heat Index: 40°   Visibility: 10mi
Dew Point: 13°   Wind: 17mph
Humidity: 33%   Direction: 310°NW
Pressure: 29.76"   Gusts: 25mph
Location:  40.8903°N, 73.169°W
Report Text: KISP 251956Z 31015G22KT 10SM FEW041 BKN220 04/M11 A2976 RMK AO2 SLP078 T00441106
Loading
Personal Weather Stations






























Interactive Weather Map New forecast layout! Learn more

10-Day Weather Forecast

Advertisements
Track Severe Weather on mobile